메인 페이지
METAR-TAF:

METAR-TAF

공항 :

바마코, 말리

위도: 12-32N, 경도: 007-57W, 고도: 380m

현재 날씨관측

예보는 40분 전, 00:30시(UTC)에 발표되었습니다.
여러 방향의 바람 1kt남남서풍과 풍을 오가는
온도 23°C
습도 94%
기압 1017 hPa
시정 10km 이상
고도 2000ft 상공 구름 조금

METAR: GABS 150030Z VRB01KT 200V270 9999 FEW020 23/22 Q1017 NOSIG

시각: 01:10 (01:10 UTC)

예보

예보는 2 시간 10분 전, 23:00시(UTC)에 발표되었습니다.
예보 대상 시간: 15일 00시부터 16일 06시까지 (UTC)
북서6kt
시정 10km 이상
고도 2000ft 상공 구름 보통
확률 40% :
일시적
15일 04시부터 15일 09시까지 (UTC)
시정: 2000m
박무
확률 40% :
일시적
15일 14시부터 15일 22시까지 (UTC)
고도 2000ft 상공 구름 보통
고도 2600ft 상공 구름 조금, 적란운.
뇌우

TAF: GABS 142300Z 1500/1606 31006KT 9999 SCT020 PROB40 TEMPO 1504/1509 2000 BR PROB40 TEMPO 1514/1522 TS SCT020 FEW026CB

4,000개 이상의 공항 관측 자료 및 예보 (METAR 및 TAF 보고).

지도상에서 검색 가능한 기상관측소가 노란 점과 빨간 점으로 표시되어 있습니다.

기상관측소 명을 보려면 표시 위로 마우스를 이동하세요.

날씨 관측과 예보를 보려면 클릭하세요.

지도 변경 : 확대하려면 엑스 표시가 있는 녹색 버튼, 축소하려면 빼기 표시가 있는 녹색 버튼, 다음 페이지의 지도를 보려면 녹색 화살표를 클릭하세요.


METAR-TAF: